Time;durP1;ratioP1;P1;durP2;ratioP2;P2;SDS_P1;SDS_P2;PMS_P1;PMS_P2;Temp;Humidity;BMP_temperature;BMP_pressure;BME280_temperature;BME280_humidity;BME280_pressure;Samples;Min_cycle;Max_cycle;Signal;HPM_P1;HPM_P2
2022/01/01 00:02:02;;;;;;;66.05;35.30;;;;;;;4.28;75.12;95884.22;5011858;28;20522;-76
2022/01/01 00:04:27;;;;;;;59.13;34.30;;;;;;;4.17;75.27;95889.56;5012455;28;20492;-76
2022/01/01 00:06:53;;;;;;;57.90;33.95;;;;;;;4.15;75.58;95881.72;5011332;28;20041;-76
2022/01/01 00:09:18;;;;;;;67.32;36.35;;;;;;;4.15;76.21;95884.38;5028807;28;20470;-77
2022/01/01 00:11:43;;;;;;;62.53;35.83;;;;;;;4.08;76.25;95880.53;5028138;28;20509;-76
2022/01/01 00:14:09;;;;;;;60.63;34.50;;;;;;;4.14;76.20;95876.53;5010975;28;20029;-77
2022/01/01 00:16:34;;;;;;;63.60;36.88;;;;;;;4.15;76.15;95870.25;5009414;28;20438;-76
2022/01/01 00:19:00;;;;;;;66.45;37.83;;;;;;;4.14;75.72;95873.88;5028090;28;20018;-76
2022/01/01 00:21:25;;;;;;;65.10;36.35;;;;;;;4.15;76.42;95871.09;5028565;28;20084;-77
2022/01/01 00:23:51;;;;;;;67.03;36.08;;;;;;;4.14;76.36;95869.44;5009602;28;20044;-76
2022/01/01 00:26:16;;;;;;;72.38;39.15;;;;;;;4.17;75.70;95865.66;5009510;28;20021;-77
2022/01/01 00:28:42;;;;;;;78.65;42.78;;;;;;;4.17;76.10;95870.97;5028517;28;20026;-77
2022/01/01 00:31:07;;;;;;;81.10;45.70;;;;;;;4.22;75.64;95868.78;5011278;28;20032;-77
2022/01/01 00:33:32;;;;;;;89.22;48.80;;;;;;;4.20;75.97;95870.72;5011035;28;20037;-77
2022/01/01 00:35:58;;;;;;;84.57;45.65;;;;;;;4.22;75.65;95871.44;5011452;28;20025;-76
2022/01/01 00:38:24;;;;;;;98.40;51.30;;;;;;;4.25;75.54;95868.53;5028993;28;20033;-76
2022/01/01 00:40:49;;;;;;;106.10;54.47;;;;;;;4.24;75.05;95872.16;5011199;28;20030;-77
2022/01/01 00:43:14;;;;;;;103.97;53.80;;;;;;;4.21;75.01;95867.09;5028353;28;20059;-77
2022/01/01 00:45:40;;;;;;;99.50;53.97;;;;;;;4.15;74.18;95863.16;5028610;28;20469;-77
2022/01/01 00:48:05;;;;;;;177.25;90.93;;;;;;;4.17;75.41;95852.41;5028453;28;20515;-76
2022/01/01 00:50:31;;;;;;;186.80;98.93;;;;;;;4.16;75.65;95853.38;5010935;28;20029;-76
2022/01/01 00:52:58;;;;;;;194.70;98.35;;;;;;;4.17;75.46;95853.25;5028503;28;20032;-76
2022/01/01 00:55:24;;;;;;;176.45;88.32;;;;;;;4.05;76.16;95851.59;5010517;28;20025;-77
2022/01/01 00:57:49;;;;;;;177.27;88.28;;;;;;;4.08;76.58;95848.66;5028501;28;20029;-76
2022/01/01 01:00:14;;;;;;;186.82;92.20;;;;;;;4.06;76.25;95843.50;4994083;28;20028;-76
2022/01/01 01:02:40;;;;;;;186.75;92.32;;;;;;;4.09;76.18;95845.06;5010449;28;20014;-76
2022/01/01 01:05:06;;;;;;;206.77;99.40;;;;;;;4.08;75.68;95841.56;5028206;28;20022;-77
2022/01/01 01:07:31;;;;;;;161.52;82.35;;;;;;;3.99;73.67;95839.66;5027860;28;20033;-77
2022/01/01 01:09:56;;;;;;;152.32;69.28;;;;;;;3.89;72.49;95831.59;5028138;28;20049;-78
2022/01/01 01:12:26;;;;;;;146.60;74.97;;;;;;;3.75;73.17;95830.09;5028054;28;20424;-76
2022/01/01 01:14:52;;;;;;;133.77;69.88;;;;;;;3.63;73.54;95831.09;5027971;28;20152;-76
2022/01/01 01:17:18;;;;;;;148.38;68.28;;;;;;;3.59;73.97;95833.16;5010369;28;20034;-76
2022/01/01 01:19:43;;;;;;;132.20;65.35;;;;;;;3.56;73.91;95834.22;5027985;28;20025;-77
2022/01/01 01:22:09;;;;;;;117.85;58.15;;;;;;;3.43;73.68;95838.84;5028062;28;20025;-76
2022/01/01 01:24:35;;;;;;;104.38;54.42;;;;;;;3.34;73.71;95843.03;5027856;28;20025;-76
2022/01/01 01:27:02;;;;;;;104.57;55.10;;;;;;;3.40;73.68;95849.69;5028296;28;20022;-76
2022/01/01 01:29:30;;;;;;;113.90;58.13;;;;;;;3.44;72.93;95851.97;5035625;28;20021;-77
2022/01/01 01:31:56;;;;;;;126.82;63.05;;;;;;;3.41;73.68;95860.16;5036891;28;20025;-78
2022/01/01 01:34:21;;;;;;;136.18;65.63;;;;;;;3.29;72.37;95864.63;5019616;28;20048;-76
2022/01/01 01:36:47;;;;;;;147.57;70.55;;;;;;;3.25;73.41;95854.38;5020141;28;20032;-76
2022/01/01 01:39:12;;;;;;;153.57;76.90;;;;;;;3.27;74.38;95850.66;4994142;28;20021;-76
2022/01/01 01:41:38;;;;;;;152.45;73.80;;;;;;;3.34;74.92;95848.34;5027572;28;20026;-77
2022/01/01 01:44:24;;;;;;;141.20;71.85;;;;;;;3.36;75.27;95833.16;5027364;28;20033;-77
2022/01/01 01:46:50;;;;;;;69.50;38.88;;;;;;;3.43;76.21;95837.00;5009856;28;20103;-77
2022/01/01 01:49:15;;;;;;;73.82;39.97;;;;;;;3.52;76.72;95834.59;5027324;28;20021;-77
2022/01/01 01:51:41;;;;;;;77.68;41.03;;;;;;;3.53;76.86;95836.28;5009262;28;20547;-76
2022/01/01 01:54:08;;;;;;;110.15;52.10;;;;;;;3.55;76.23;95848.44;4993040;28;20416;-76
2022/01/01 01:56:33;;;;;;;92.88;44.80;;;;;;;3.59;76.22;95843.75;4993154;28;20084;-77
2022/01/01 01:58:59;;;;;;;78.82;43.88;;;;;;;3.57;75.95;95835.91;4976889;28;20519;-77
2022/01/01 02:01:24;;;;;;;87.95;45.58;;;;;;;3.52;76.05;95845.19;4992692;28;20428;-77
2022/01/01 02:03:50;;;;;;;88.03;43.78;;;;;;;3.52;75.64;95835.44;5027108;28;20491;-76
2022/01/01 02:06:16;;;;;;;87.50;45.40;;;;;;;3.53;75.68;95837.13;4993265;28;20534;-78
2022/01/01 02:08:42;;;;;;;74.80;40.22;;;;;;;3.49;75.95;95830.38;5009129;28;20521;-75
2022/01/01 02:11:08;;;;;;;57.22;32.53;;;;;;;3.52;76.10;95838.09;5009329;28;20548;-75
2022/01/01 02:13:49;;;;;;;53.45;28.48;;;;;;;3.48;77.46;95827.84;5026623;28;20040;-76
2022/01/01 02:18:54;;;;;;;39.25;19.60;;;;;;;3.53;76.48;95829.16;5026523;28;20032;-78
2022/01/01 02:21:20;;;;;;;27.13;16.33;;;;;;;3.58;76.20;95834.09;5010141;28;20037;-77
2022/01/01 02:23:46;;;;;;;30.50;17.00;;;;;;;3.58;75.91;95837.59;5009293;28;20033;-76
2022/01/01 02:26:15;;;;;;;29.13;16.73;;;;;;;3.59;75.71;95823.34;5009300;28;20033;-76
2022/01/01 02:28:41;;;;;;;24.83;15.20;;;;;;;3.61;75.10;95831.19;5009775;28;20033;-76
2022/01/01 02:31:06;;;;;;;24.08;15.23;;;;;;;3.64;76.18;95828.31;4992718;28;20048;-76
2022/01/01 02:33:32;;;;;;;28.35;15.95;;;;;;;3.71;76.28;95836.59;5026799;28;20407;-77
2022/01/01 02:35:58;;;;;;;28.75;15.60;;;;;;;3.68;76.29;95826.25;5027041;28;20488;-76
2022/01/01 02:38:23;;;;;;;28.65;16.02;;;;;;;3.65;75.99;95818.53;5026923;28;20352;-76
2022/01/01 02:40:48;;;;;;;21.00;13.00;;;;;;;3.72;76.54;95814.44;5008683;28;20409;-78
2022/01/01 02:43:14;;;;;;;26.92;14.68;;;;;;;3.76;76.43;95813.19;5026554;28;20443;-76
2022/01/01 02:45:40;;;;;;;21.45;12.07;;;;;;;3.76;76.81;95818.50;5026254;28;20516;-76
2022/01/01 02:48:06;;;;;;;27.20;14.82;;;;;;;3.80;73.52;95816.44;5026360;28;20028;-76
2022/01/01 02:50:31;;;;;;;23.58;12.65;;;;;;;3.80;75.62;95811.13;5009028;28;20068;-76
2022/01/01 02:52:56;;;;;;;22.30;12.25;;;;;;;3.92;76.91;95809.28;5025844;28;20420;-77
2022/01/01 02:55:22;;;;;;;24.00;13.27;;;;;;;3.91;75.96;95810.25;5008746;28;20511;-77
2022/01/01 02:57:47;;;;;;;30.40;15.77;;;;;;;3.86;75.46;95807.13;5026178;28;20060;-77
2022/01/01 03:00:13;;;;;;;28.73;15.48;;;;;;;3.86;75.20;95809.78;5008877;28;20396;-77
2022/01/01 03:02:39;;;;;;;27.08;14.40;;;;;;;3.82;75.96;95790.63;4992772;28;20037;-77
2022/01/01 03:05:06;;;;;;;24.95;14.02;;;;;;;3.82;75.29;95799.41;5026526;28;20488;-77
2022/01/01 03:07:34;;;;;;;18.17;11.13;;;;;;;3.98;75.42;95786.72;5026456;28;20100;-76
2022/01/01 03:09:59;;;;;;;22.58;11.18;;;;;;;4.00;76.57;95780.28;5004948;28;20365;-78
2022/01/01 03:12:25;;;;;;;14.52;9.13;;;;;;;4.00;76.61;95771.50;5006701;28;20509;-76
2022/01/01 03:14:50;;;;;;;18.90;11.00;;;;;;;3.99;75.84;95791.88;5004908;28;20037;-76
2022/01/01 03:17:16;;;;;;;19.33;11.63;;;;;;;3.94;76.94;95796.72;4988974;28;20037;-76
2022/01/01 03:19:41;;;;;;;23.50;12.80;;;;;;;4.01;75.43;95799.72;5006912;28;20496;-76
2022/01/01 03:22:06;;;;;;;21.40;11.68;;;;;;;3.99;75.44;95791.88;5006638;28;20048;-77
2022/01/01 03:24:32;;;;;;;26.90;15.13;;;;;;;3.93;75.24;95784.44;5005163;28;20041;-77
2022/01/01 03:26:57;;;;;;;27.63;14.20;;;;;;;3.92;75.17;95780.09;5006334;28;20029;-77
2022/01/01 03:29:23;;;;;;;28.27;14.88;;;;;;;3.94;75.25;95786.13;4988944;28;20037;-76
2022/01/01 03:31:49;;;;;;;22.80;14.25;;;;;;;3.95;75.25;95786.00;5005031;28;20456;-76
2022/01/01 03:34:14;;;;;;;25.38;14.50;;;;;;;3.92;75.00;95783.59;4989257;28;20026;-76
2022/01/01 03:36:39;;;;;;;25.08;14.40;;;;;;;3.83;75.34;95785.22;5006536;28;20591;-76
2022/01/01 03:39:05;;;;;;;23.95;14.10;;;;;;;3.85;74.77;95787.72;5006252;28;20497;-77
2022/01/01 03:41:30;;;;;;;31.60;18.20;;;;;;;3.81;73.64;95784.47;5006669;28;20022;-75
2022/01/01 03:43:56;;;;;;;57.40;32.53;;;;;;;3.67;72.54;95795.38;5006208;28;20381;-77
2022/01/01 03:46:21;;;;;;;62.42;35.88;;;;;;;3.52;72.23;95803.63;5006662;28;20460;-76
2022/01/01 03:48:47;;;;;;;56.22;33.38;;;;;;;3.45;72.64;95791.84;5007309;28;20076;-77
2022/01/01 03:51:12;;;;;;;58.03;35.53;;;;;;;3.29;73.62;95771.00;4988817;28;20451;-78
2022/01/01 03:53:37;;;;;;;51.95;29.85;;;;;;;3.31;74.39;95761.09;5005856;28;20041;-76
2022/01/01 03:56:03;;;;;;;35.38;20.45;;;;;;;3.38;75.89;95764.09;5009537;28;20025;-77
2022/01/01 03:58:28;;;;;;;36.72;19.98;;;;;;;3.50;75.74;95773.72;5014700;28;20084;-77
2022/01/01 04:00:55;;;;;;;37.83;20.38;;;;;;;3.55;75.87;95766.22;5016469;28;20030;-77
2022/01/01 04:03:21;;;;;;;40.58;23.10;;;;;;;3.60;76.47;95757.91;5015933;28;20033;-78
2022/01/01 04:05:46;;;;;;;41.70;23.85;;;;;;;3.74;76.55;95758.59;5016425;28;20060;-76
2022/01/01 04:08:12;;;;;;;42.30;24.05;;;;;;;3.70;76.57;95758.84;5015393;28;20018;-78
2022/01/01 04:10:38;;;;;;;48.10;25.40;;;;;;;3.71;76.76;95759.66;5034688;28;20519;-77
2022/01/01 04:13:03;;;;;;;46.05;24.75;;;;;;;3.71;76.95;95751.69;5034883;28;20032;-78
2022/01/01 04:15:29;;;;;;;49.67;25.60;;;;;;;3.63;76.40;95752.34;5016125;28;20053;-80
2022/01/01 04:18:00;;;;;;;53.20;28.00;;;;;;;3.62;76.57;95750.66;5011986;28;20059;-79
2022/01/01 04:20:26;;;;;;;56.60;32.80;;;;;;;3.65;76.25;95749.56;4996788;28;20030;-76
2022/01/01 04:22:52;;;;;;;56.85;30.48;;;;;;;3.62;76.15;95747.16;5011314;28;20091;-79
2022/01/01 04:25:18;;;;;;;53.55;29.60;;;;;;;3.68;76.34;95757.25;5011021;28;20029;-76
2022/01/01 04:27:43;;;;;;;55.25;30.75;;;;;;;3.65;76.05;95747.75;5011170;28;20084;-76
2022/01/01 04:30:09;;;;;;;56.35;33.13;;;;;;;3.66;75.25;95753.91;5028913;28;20025;-77
2022/01/01 04:32:34;;;;;;;67.90;39.20;;;;;;;3.59;74.21;95738.47;5011406;28;20116;-77
2022/01/01 04:35:00;;;;;;;74.03;40.40;;;;;;;3.54;73.54;95740.69;5029065;28;20022;-77
2022/01/01 04:37:25;;;;;;;74.10;39.75;;;;;;;3.48;73.67;95730.59;5010438;28;20146;-77
2022/01/01 04:39:56;;;;;;;69.25;40.13;;;;;;;3.37;73.55;95739.38;5011151;28;20029;-77
2022/01/01 04:42:21;;;;;;;69.97;39.30;;;;;;;3.27;73.77;95739.31;5028546;28;20427;-77
2022/01/01 04:44:47;;;;;;;73.43;39.28;;;;;;;3.20;73.74;95738.97;5028623;28;20021;-78
2022/01/01 04:47:12;;;;;;;75.38;40.40;;;;;;;3.15;74.22;95738.47;5029384;28;20072;-78
2022/01/01 04:49:37;;;;;;;72.65;41.22;;;;;;;3.14;74.11;95725.34;5010877;28;20341;-77
2022/01/01 04:52:03;;;;;;;74.75;40.50;;;;;;;3.08;74.33;95716.06;4994777;28;20480;-78
2022/01/01 04:54:29;;;;;;;64.60;37.22;;;;;;;2.86;75.13;95719.59;5028191;28;21438;-76
2022/01/01 04:56:54;;;;;;;58.60;32.17;;;;;;;2.91;75.27;95710.34;5028772;28;20083;-78
2022/01/01 04:59:19;;;;;;;57.67;33.42;;;;;;;2.95;75.68;95727.66;5009803;28;20522;-77
2022/01/01 05:01:45;;;;;;;53.15;32.85;;;;;;;2.88;76.60;95721.19;5010456;28;20504;-76
2022/01/01 05:04:10;;;;;;;61.42;33.70;;;;;;;2.92;76.43;95751.75;5010314;28;20348;-75
2022/01/01 05:06:36;;;;;;;58.95;32.63;;;;;;;3.00;76.50;95755.63;5027163;28;20350;-76
2022/01/01 05:09:02;;;;;;;59.40;33.38;;;;;;;3.01;76.51;95747.56;5006847;28;20263;-78
2022/01/01 05:11:27;;;;;;;53.22;30.63;;;;;;;3.08;76.64;95754.03;5006804;28;20022;-77
2022/01/01 05:13:53;;;;;;;56.60;32.90;;;;;;;3.14;76.49;95758.00;5008231;28;20117;-76
2022/01/01 05:16:19;;;;;;;56.83;33.67;;;;;;;3.18;75.30;95758.59;5006615;28;20092;-76
2022/01/01 05:18:45;;;;;;;56.72;33.35;;;;;;;3.24;75.63;95755.44;4991376;28;20113;-77
2022/01/01 05:21:11;;;;;;;61.30;33.88;;;;;;;3.28;75.89;95753.41;4990775;28;20030;-76
2022/01/01 05:23:36;;;;;;;58.85;33.22;;;;;;;3.31;76.09;95763.75;5006648;28;20030;-77
2022/01/01 05:26:02;;;;;;;60.83;32.08;;;;;;;3.38;75.71;95761.44;5008530;28;20057;-77
2022/01/01 05:28:27;;;;;;;60.72;34.25;;;;;;;3.37;75.70;95768.56;4990718;28;20428;-76
2022/01/01 05:30:53;;;;;;;59.55;34.92;;;;;;;3.39;74.85;95773.72;5007254;28;20460;-78
2022/01/01 05:33:18;;;;;;;62.22;34.60;;;;;;;3.41;74.88;95780.63;5008262;28;20018;-75
2022/01/01 05:35:43;;;;;;;58.05;33.67;;;;;;;3.38;74.05;95794.13;5007812;28;20038;-78
2022/01/01 05:38:09;;;;;;;57.08;32.92;;;;;;;3.34;72.74;95785.56;5007776;28;20052;-77
2022/01/01 05:40:34;;;;;;;50.88;31.33;;;;;;;3.22;71.87;95789.22;5006725;28;20417;-77
2022/01/01 05:43:00;;;;;;;50.33;29.65;;;;;;;3.17;71.07;95791.38;5007920;28;20030;-76
2022/01/01 05:45:25;;;;;;;47.63;29.95;;;;;;;3.02;71.22;95796.94;5008808;28;20407;-79
2022/01/01 05:47:51;;;;;;;50.38;29.25;;;;;;;2.84;71.88;95786.81;5007654;28;20508;-78
2022/01/01 05:50:17;;;;;;;53.03;30.50;;;;;;;2.72;72.80;95780.66;5008079;28;20418;-77
2022/01/01 05:52:43;;;;;;;59.42;32.25;;;;;;;2.69;73.54;95786.19;5008922;28;20057;-77
2022/01/01 05:55:09;;;;;;;51.60;31.50;;;;;;;2.72;74.08;95806.31;5011653;28;20101;-77
2022/01/01 05:57:34;;;;;;;58.35;32.47;;;;;;;2.69;74.40;95790.66;5012987;28;20046;-77
2022/01/01 06:00:00;;;;;;;57.50;33.95;;;;;;;2.58;75.40;95786.19;5013299;28;20022;-78
2022/01/01 06:02:25;;;;;;;53.88;33.45;;;;;;;2.40;76.07;95789.28;5015531;28;20042;-77
2022/01/01 06:04:51;;;;;;;58.85;32.40;;;;;;;2.49;75.99;95782.44;5008500;28;20030;-78
2022/01/01 06:07:16;;;;;;;60.25;34.70;;;;;;;2.57;76.91;95780.06;5007843;28;20029;-78
2022/01/01 06:09:41;;;;;;;72.28;40.58;;;;;;;2.48;78.08;95786.06;5018308;28;20095;-78
2022/01/01 06:12:07;;;;;;;62.45;36.13;;;;;;;2.56;77.66;95786.28;5027301;28;20083;-77
2022/01/01 06:14:33;;;;;;;62.90;36.53;;;;;;;2.62;77.06;95800.03;5009202;28;20025;-78
2022/01/01 06:16:58;;;;;;;66.45;36.00;;;;;;;2.70;76.32;95803.78;5027578;28;20028;-78
2022/01/01 06:19:24;;;;;;;58.55;33.83;;;;;;;2.73;75.82;95792.09;5027019;28;20420;-77
2022/01/01 06:21:49;;;;;;;57.30;31.70;;;;;;;2.82;74.28;95788.72;5026768;28;20025;-76
2022/01/01 06:24:14;;;;;;;53.33;32.30;;;;;;;2.80;74.65;95771.28;5027611;28;20107;-76
2022/01/01 06:26:40;;;;;;;56.20;32.38;;;;;;;2.85;74.32;95769.13;5008587;28;20033;-76
2022/01/01 06:29:05;;;;;;;58.00;34.17;;;;;;;2.85;74.28;95777.06;5026715;28;20472;-76
2022/01/01 06:31:31;;;;;;;57.25;34.03;;;;;;;2.87;74.46;95782.25;5026630;28;20075;-76
2022/01/01 06:33:56;;;;;;;63.33;35.90;;;;;;;2.87;74.90;95798.97;5026915;28;20025;-77
2022/01/01 06:36:21;;;;;;;61.42;35.58;;;;;;;2.90;74.98;95788.13;5026877;28;20021;-76
2022/01/01 06:38:47;;;;;;;60.72;35.50;;;;;;;2.90;74.90;95811.16;5026390;28;20040;-77
2022/01/01 06:41:12;;;;;;;59.17;35.78;;;;;;;2.96;74.76;95811.50;5009229;28;20455;-79
2022/01/01 06:43:38;;;;;;;60.70;35.28;;;;;;;2.97;74.61;95813.19;5008676;28;20099;-78
2022/01/01 06:46:05;;;;;;;79.13;43.58;;;;;;;3.08;74.37;95808.84;5009150;28;20064;-77
2022/01/01 06:48:30;;;;;;;88.03;45.90;;;;;;;3.14;74.03;95805.72;5026593;28;20442;-77
2022/01/01 06:50:56;;;;;;;73.60;41.67;;;;;;;3.21;74.27;95801.59;5009103;28;20032;-76
2022/01/01 06:53:21;;;;;;;79.65;45.97;;;;;;;3.24;73.36;95815.59;5026379;28;20021;-78
2022/01/01 06:55:47;;;;;;;73.80;42.60;;;;;;;3.31;73.93;95804.38;5026282;28;20282;-77
2022/01/01 06:58:12;;;;;;;78.88;44.75;;;;;;;3.36;73.31;95800.50;5008788;28;20028;-77
2022/01/01 07:00:37;;;;;;;72.90;42.47;;;;;;;3.49;73.38;95801.22;5026066;28;20048;-76
2022/01/01 07:03:03;;;;;;;63.72;38.28;;;;;;;3.52;73.25;95800.09;5026415;28;20022;-75
2022/01/01 07:05:28;;;;;;;62.60;36.55;;;;;;;3.64;73.25;95808.91;5025964;28;20378;-76
2022/01/01 07:07:54;;;;;;;62.58;35.70;;;;;;;3.83;72.16;95805.59;5026325;28;20491;-77
2022/01/01 07:10:19;;;;;;;67.93;38.40;;;;;;;3.83;72.74;95816.19;5026252;28;20034;-76
2022/01/01 07:12:44;;;;;;;72.10;42.30;;;;;;;3.83;71.93;95817.03;5026544;28;20030;-76
2022/01/01 07:15:10;;;;;;;70.43;40.38;;;;;;;3.88;72.12;95818.47;5025531;28;20057;-78
2022/01/01 07:17:36;;;;;;;65.68;38.53;;;;;;;4.06;71.58;95824.91;5008258;28;20033;-76
2022/01/01 07:20:01;;;;;;;60.38;35.75;;;;;;;4.23;71.16;95827.13;5008266;28;20021;-78
2022/01/01 07:22:27;;;;;;;65.53;37.70;;;;;;;4.14;71.16;95819.00;5008795;28;20034;-78
2022/01/01 07:24:52;;;;;;;63.25;37.83;;;;;;;4.25;70.92;95811.94;4991999;28;20646;-76
2022/01/01 07:27:20;;;;;;;75.90;42.55;;;;;;;4.22;70.18;95810.38;5008361;28;20492;-76
2022/01/01 07:29:45;;;;;;;69.85;42.45;;;;;;;4.14;71.20;95818.13;5015310;28;20030;-79
2022/01/01 07:32:11;;;;;;;68.60;42.58;;;;;;;4.43;70.18;95809.56;5041748;28;20021;-77
2022/01/01 07:34:37;;;;;;;76.15;46.15;;;;;;;4.66;70.67;95820.03;5027142;28;20029;-77
2022/01/01 07:37:02;;;;;;;92.70;52.47;;;;;;;4.81;71.61;95826.69;5039069;28;20029;-78
2022/01/01 07:39:28;;;;;;;94.85;53.42;;;;;;;5.04;70.82;95826.53;5030564;28;20187;-79
2022/01/01 07:41:54;;;;;;;93.47;52.35;;;;;;;5.30;70.58;95820.75;5012546;28;20021;-77
2022/01/01 07:44:19;;;;;;;100.97;50.80;;;;;;;5.57;70.44;95834.44;4995474;28;20041;-77
2022/01/01 07:46:45;;;;;;;119.68;55.40;;;;;;;5.79;69.74;95830.69;5030329;28;20128;-79
2022/01/01 07:49:10;;;;;;;117.82;52.50;;;;;;;6.14;69.40;95827.69;5028932;28;20096;-78
2022/01/01 07:51:35;;;;;;;94.65;49.05;;;;;;;6.38;68.31;95821.94;5030016;28;20430;-78
2022/01/01 07:54:01;;;;;;;85.75;42.63;;;;;;;6.62;68.70;95820.66;5029259;28;20029;-77
2022/01/01 07:56:26;;;;;;;59.30;34.00;;;;;;;6.80;68.50;95818.06;5029586;28;20100;-76
2022/01/01 07:58:51;;;;;;;46.35;28.00;;;;;;;6.90;68.81;95819.91;5029499;28;20527;-76
2022/01/01 08:01:17;;;;;;;42.22;25.65;;;;;;;6.99;68.50;95816.34;5011880;28;20025;-79
2022/01/01 08:03:43;;;;;;;38.28;23.17;;;;;;;7.29;68.25;95808.22;5011521;28;20025;-76
2022/01/01 08:06:08;;;;;;;42.03;25.50;;;;;;;7.54;67.54;95814.72;5010729;28;20056;-77
2022/01/01 08:08:33;;;;;;;45.55;26.85;;;;;;;7.57;67.78;95812.75;5029504;28;20033;-77
2022/01/01 08:10:59;;;;;;;56.90;34.35;;;;;;;7.44;67.84;95808.59;5029214;28;20373;-77
2022/01/01 08:13:25;;;;;;;36.40;21.38;;;;;;;7.43;69.36;95817.59;4994856;28;20013;-78
2022/01/01 08:15:51;;;;;;;29.42;17.75;;;;;;;7.48;70.26;95820.63;5011274;28;20025;-77
2022/01/01 08:18:17;;;;;;;23.50;15.05;;;;;;;7.51;70.85;95814.19;5011195;28;20029;-77
2022/01/01 08:20:42;;;;;;;22.70;14.10;;;;;;;7.54;71.16;95813.88;5011468;28;20030;-76
2022/01/01 08:23:08;;;;;;;24.95;14.35;;;;;;;7.57;71.51;95807.41;5011933;28;20061;-77
2022/01/01 08:25:33;;;;;;;22.33;13.93;;;;;;;7.63;72.14;95815.66;5030042;28;20023;-78
2022/01/01 08:27:59;;;;;;;20.77;13.68;;;;;;;7.75;72.21;95807.44;5011022;28;20033;-78
2022/01/01 08:30:24;;;;;;;18.35;11.88;;;;;;;7.81;73.24;95814.00;5028737;28;20033;-77
2022/01/01 08:32:50;;;;;;;17.92;11.65;;;;;;;7.96;72.91;95812.50;5028820;28;20025;-77
2022/01/01 08:35:15;;;;;;;19.65;12.15;;;;;;;8.22;72.29;95819.75;5010759;28;20474;-77
2022/01/01 08:37:41;;;;;;;7.63;5.13;;;;;;;8.57;71.51;95813.75;5010984;28;20029;-77
2022/01/01 08:40:07;;;;;;;7.50;4.85;;;;;;;8.75;71.29;95806.50;5030430;28;20060;-78
2022/01/01 08:42:32;;;;;;;7.43;4.82;;;;;;;8.93;70.49;95808.31;5010717;28;20045;-77
2022/01/01 08:44:58;;;;;;;6.60;4.13;;;;;;;8.97;70.41;95815.03;4994293;28;20025;-79
2022/01/01 08:47:26;;;;;;;5.82;4.07;;;;;;;9.15;69.61;95814.13;5010805;28;20037;-77
2022/01/01 08:49:54;;;;;;;5.45;3.88;;;;;;;9.33;68.77;95823.94;5027769;28;20039;-78
2022/01/01 08:52:19;;;;;;;6.63;3.92;;;;;;;9.48;67.80;95816.97;5011049;28;20099;-78
2022/01/01 08:54:45;;;;;;;4.70;3.40;;;;;;;9.74;66.85;95832.13;5010380;28;20029;-79
2022/01/01 08:57:10;;;;;;;5.40;3.53;;;;;;;9.70;66.65;95827.28;5010618;28;20075;-76
2022/01/01 08:59:36;;;;;;;5.10;3.65;;;;;;;9.76;66.15;95835.50;5027769;28;20030;-77
2022/01/01 09:02:01;;;;;;;6.38;4.22;;;;;;;9.84;66.23;95836.53;5027628;28;20018;-77
2022/01/01 09:04:26;;;;;;;6.50;3.88;;;;;;;9.97;65.45;95836.91;4993626;28;20021;-77
2022/01/01 09:06:52;;;;;;;3.75;2.97;;;;;;;9.98;65.77;95838.56;5010040;28;20026;-77
2022/01/01 09:09:17;;;;;;;4.82;2.83;;;;;;;10.10;65.15;95827.53;5027857;28;20406;-78
2022/01/01 09:11:43;;;;;;;5.68;3.10;;;;;;;10.44;64.58;95831.13;5010047;28;20477;-77
2022/01/01 09:14:09;;;;;;;4.25;3.00;;;;;;;10.42;64.04;95825.91;5010301;28;20037;-76
2022/01/01 09:16:34;;;;;;;4.80;2.90;;;;;;;10.41;63.72;95824.25;5027555;28;20498;-78
2022/01/01 09:19:00;;;;;;;5.32;3.45;;;;;;;10.42;63.99;95812.50;5010417;28;20021;-78
2022/01/01 09:21:27;;;;;;;7.32;3.45;;;;;;;10.43;63.42;95822.22;5027307;28;20408;-79
2022/01/01 09:23:53;;;;;;;4.90;3.50;;;;;;;10.42;63.78;95830.44;5009425;28;20037;-77
2022/01/01 09:26:19;;;;;;;5.10;3.35;;;;;;;10.42;64.12;95823.25;5009953;28;20088;-77
2022/01/01 09:28:45;;;;;;;4.65;3.13;;;;;;;10.49;64.23;95821.59;5009288;28;20029;-76
2022/01/01 09:31:10;;;;;;;4.90;3.30;;;;;;;10.60;63.57;95830.31;5027703;28;20113;-77
2022/01/01 09:33:36;;;;;;;5.15;3.17;;;;;;;10.60;64.16;95830.31;5009016;28;20044;-77
2022/01/01 09:36:03;;;;;;;4.57;3.10;;;;;;;10.61;63.09;95842.72;4993160;28;20387;-76
2022/01/01 09:38:29;;;;;;;5.18;2.97;;;;;;;10.61;62.99;95840.88;5009142;28;20510;-78
2022/01/01 09:40:55;;;;;;;4.45;3.30;;;;;;;10.69;63.00;95829.31;5027586;28;20508;-78
2022/01/01 09:43:22;;;;;;;5.72;3.30;;;;;;;10.69;62.51;95829.31;5009827;28;20030;-77
2022/01/01 09:45:48;;;;;;;7.43;3.47;;;;;;;10.73;62.00;95844.09;4992648;28;20030;-77
2022/01/01 09:48:14;;;;;;;6.05;2.97;;;;;;;10.71;61.50;95835.34;5026895;28;20034;-77
2022/01/01 09:50:41;;;;;;;5.68;3.17;;;;;;;10.72;61.57;95834.34;5008398;28;20030;-79
2022/01/01 09:53:07;;;;;;;4.88;3.13;;;;;;;10.67;61.06;95822.44;5008962;28;20030;-77
2022/01/01 09:55:34;;;;;;;5.30;3.10;;;;;;;10.70;60.87;95836.38;4992673;28;20030;-76
2022/01/01 09:57:59;;;;;;;4.32;2.92;;;;;;;10.66;61.08;95821.59;5009299;28;20022;-77
2022/01/01 10:00:25;;;;;;;4.68;3.40;;;;;;;10.64;61.32;95831.66;5027120;28;20075;-77
2022/01/01 10:02:50;;;;;;;5.20;3.53;;;;;;;10.66;61.08;95843.06;5008721;28;20033;-79
2022/01/01 10:05:16;;;;;;;5.38;3.70;;;;;;;10.69;61.51;95840.03;5009322;28;20148;-79
2022/01/01 10:07:41;;;;;;;5.00;3.30;;;;;;;10.70;61.46;95835.53;5026237;28;20317;-76
2022/01/01 10:10:22;;;;;;;5.05;3.75;;;;;;;10.77;61.05;95833.00;5026921;28;20046;-78
2022/01/01 10:12:48;;;;;;;6.15;4.25;;;;;;;10.79;61.49;95841.72;5026512;28;20079;-77
2022/01/01 10:15:14;;;;;;;6.97;4.10;;;;;;;10.79;60.85;95826.47;5026698;28;20033;-78
2022/01/01 10:17:40;;;;;;;7.15;4.35;;;;;;;10.82;60.88;95844.06;5008804;28;20033;-79
2022/01/01 10:20:05;;;;;;;6.18;4.32;;;;;;;10.86;60.97;95845.41;5026261;28;20405;-77
2022/01/01 10:22:31;;;;;;;6.72;3.67;;;;;;;10.84;60.70;95842.06;5009070;28;20511;-77
2022/01/01 10:28:00;;;;;;;6.63;3.92;;;;;;;10.90;60.54;95852.09;5026927;28;20060;-77
2022/01/01 10:30:29;;;;;;;7.25;3.97;;;;;;;10.96;60.83;95845.25;5027058;28;20374;-77
2022/01/01 10:33:07;;;;;;;6.07;4.40;;;;;;;11.00;60.78;95852.78;5026472;28;20025;-76
2022/01/01 10:35:35;;;;;;;6.60;4.32;;;;;;;11.04;60.82;95844.38;5026586;28;20044;-77
2022/01/01 10:38:03;;;;;;;6.80;4.50;;;;;;;11.17;61.08;95841.19;5025838;28;20028;-77
2022/01/01 10:40:28;;;;;;;6.10;4.50;;;;;;;11.23;61.00;95825.25;5008867;28;20120;-77
2022/01/01 10:42:54;;;;;;;6.50;4.72;;;;;;;11.37;60.81;95841.63;5026146;28;20018;-78
2022/01/01 10:45:33;;;;;;;8.43;4.70;;;;;;;11.54;60.46;95833.53;5026273;28;20486;-77
2022/01/01 10:50:55;;;;;;;6.95;4.53;;;;;;;11.57;59.95;95833.19;5025820;28;20061;-77
2022/01/01 10:53:25;;;;;;;9.25;4.90;;;;;;;11.58;60.39;95835.69;4992521;28;20022;-78
2022/01/01 10:55:53;;;;;;;10.05;4.25;;;;;;;11.63;59.44;95835.19;5025814;28;20034;-78
2022/01/01 10:58:23;;;;;;;5.25;4.05;;;;;;;11.68;59.99;95834.66;4992198;28;20095;-78
2022/01/01 11:00:49;;;;;;;6.82;4.65;;;;;;;11.65;59.88;95837.69;5008887;28;20036;-78
2022/01/01 11:03:16;;;;;;;8.82;5.20;;;;;;;11.63;59.92;95835.19;5026286;28;20029;-77
2022/01/01 11:05:42;;;;;;;7.22;5.10;;;;;;;11.65;59.78;95826.94;5012244;28;20033;-78
2022/01/01 11:08:08;;;;;;;9.02;5.25;;;;;;;11.62;59.05;95817.38;5011949;28;20037;-78
2022/01/01 11:10:35;;;;;;;7.22;4.78;;;;;;;11.54;59.19;95822.78;4996094;28;20041;-77
2022/01/01 11:13:00;;;;;;;6.47;4.82;;;;;;;11.58;59.00;95827.63;5012100;28;20025;-79
2022/01/01 11:15:26;;;;;;;8.27;5.18;;;;;;;11.54;58.38;95822.78;5030248;28;20053;-78
2022/01/01 11:17:52;;;;;;;7.63;4.78;;;;;;;11.52;57.59;95822.13;5030058;28;20511;-77
2022/01/01 11:20:18;;;;;;;9.07;4.97;;;;;;;11.46;58.90;95821.78;5012551;28;20500;-77
2022/01/01 11:22:43;;;;;;;8.55;5.10;;;;;;;11.38;59.66;95811.09;5012467;28;20025;-77
2022/01/01 11:25:09;;;;;;;7.15;5.13;;;;;;;11.27;59.58;95830.25;5011473;28;20473;-76
2022/01/01 11:27:35;;;;;;;8.07;5.30;;;;;;;11.25;60.07;95820.50;5012674;28;20025;-77
2022/01/01 11:30:04;;;;;;;9.38;5.65;;;;;;;11.20;60.89;95822.91;5029130;28;20017;-77